Huvudsida
METAR-TAF:

METAR-TAF

Flygplatser :

Netaji Subhash Chandra Bose International Airport

Calcutta, Indien

latitud: 22-39N, longitud: 088-27E, höjd: 4 m

Aktuellt väderrapport

Denna rapport gjordes för 31 minuter sedan, klockan 05:00 UTC
Vind 7 kt från väst
Temperatur 37°C
Fuktighet 37%
Tryck 1006 hPa
Sikt: 4000 m
Få moln på en höjd av 10000 ft
torrdis,

METAR: VECC 240500Z 27007KT 4000 HZ FEW100 37/20 Q1006 NOSIG

Tid: 11:01 (05:31 UTC)

Väderprognos

Denna rapport gjordes för 3 timmar och 31 minuter sedan, klockan 02:00 UTC
Prognos gäller från 24 kl. 03 UTC till 24 kl. 12 UTC
Vind 8 kt från väst
Sikt: 5000 m
Få moln på en höjd av 2000 ft
Spridda moln på en höjd av 10000 ft
torrdis
Blir
från 24 kl. 10 UTC till 24 kl. 12 UTC
Vind 5 kt från syd

TAF: VECC 240200Z 2403/2412 27008KT 5000 HZ FEW020 SCT100 BECMG 2410/2412 18005KT

Aktuella väderrapporter och prognoser från 4000 flygplatser (METAR- och TAF-rapporter).

De tillgängliga stationerna syns som gula och röda prickar på kartan.

För musen över prickarna för att se namnen på stationerna.

Klicka sedan för att få väderrapporter och prognoser.

För att ändra kartan: Klicka på de gröna knapparna med ett svart kors på för att zooma in; den gröna knappen med ett streck på för att zooma ut; eller på de gröna pilarna för angränsande kartor.


METAR-TAF: